Terminal Aerodrome Forecast
Issued by NWS

Home | Current Version | Previous Version | Text Only | Print | Product List | Glossary On
Versions: 1 2 3 4 5 6 7 8 9 10 11 12 13 14 15 16 17 18 19 20 21 22 23 24 25
000
FTUS43 KDLH 192200 AAC
TAFBRD
TAF AMD
KBRD 192257Z 1923/2018 19010KT P6SM SCT025 BKN050
      TEMPO 1923/2001 6SM -TSRA BKN035CB
     FM200100 20005KT P6SM VCSH BKN060
     FM200200 VRB03KT P6SM SCT060
      TEMPO 2008/2012 2SM BR SCT010
     FM201400 18013KT P6SM SCT050 BKN100=

USA.gov is the U.S. government's official web portal to all federal, state and local government web resources and services.